sensor_id;sensor_type;location;lat;lon;timestamp;P1;durP1;ratioP1;P2;durP2;ratioP2
6197;SDS011;3132;42.622;23.328;2022-08-19T00:01:16;10.98;;;10.15;;
6197;SDS011;3132;42.622;23.328;2022-08-19T00:03:42;10.75;;;9.88;;
6197;SDS011;3132;42.622;23.328;2022-08-19T00:06:07;10.93;;;9.95;;
6197;SDS011;3132;42.622;23.328;2022-08-19T00:08:34;10.60;;;9.90;;
6197;SDS011;3132;42.622;23.328;2022-08-19T00:11:00;10.45;;;9.85;;
6197;SDS011;3132;42.622;23.328;2022-08-19T00:13:25;11.40;;;10.60;;
6197;SDS011;3132;42.622;23.328;2022-08-19T00:15:53;12.07;;;10.93;;
6197;SDS011;3132;42.622;23.328;2022-08-19T00:18:19;11.32;;;10.43;;
6197;SDS011;3132;42.622;23.328;2022-08-19T00:20:45;11.70;;;10.90;;
6197;SDS011;3132;42.622;23.328;2022-08-19T00:23:10;11.30;;;10.40;;
6197;SDS011;3132;42.622;23.328;2022-08-19T00:25:36;11.43;;;10.52;;
6197;SDS011;3132;42.622;23.328;2022-08-19T00:28:01;11.13;;;10.32;;
6197;SDS011;3132;42.622;23.328;2022-08-19T00:30:27;11.05;;;10.25;;
6197;SDS011;3132;42.622;23.328;2022-08-19T00:32:53;10.80;;;9.93;;
6197;SDS011;3132;42.622;23.328;2022-08-19T00:35:20;10.88;;;10.25;;
6197;SDS011;3132;42.622;23.328;2022-08-19T00:37:46;10.88;;;10.20;;
6197;SDS011;3132;42.622;23.328;2022-08-19T00:40:12;10.82;;;10.02;;
6197;SDS011;3132;42.622;23.328;2022-08-19T00:42:38;11.32;;;10.35;;
6197;SDS011;3132;42.622;23.328;2022-08-19T00:45:08;10.52;;;9.70;;
6197;SDS011;3132;42.622;23.328;2022-08-19T00:47:39;11.40;;;10.50;;
6197;SDS011;3132;42.622;23.328;2022-08-19T00:50:06;10.55;;;9.75;;
6197;SDS011;3132;42.622;23.328;2022-08-19T00:52:33;11.00;;;10.20;;
6197;SDS011;3132;42.622;23.328;2022-08-19T00:55:02;10.25;;;9.65;;
6197;SDS011;3132;42.622;23.328;2022-08-19T00:57:32;12.45;;;11.55;;
6197;SDS011;3132;42.622;23.328;2022-08-19T01:00:03;11.13;;;10.43;;
6197;SDS011;3132;42.622;23.328;2022-08-19T01:02:36;11.05;;;10.15;;
6197;SDS011;3132;42.622;23.328;2022-08-19T01:05:03;10.73;;;10.02;;
6197;SDS011;3132;42.622;23.328;2022-08-19T01:07:32;11.32;;;10.40;;
6197;SDS011;3132;42.622;23.328;2022-08-19T01:09:59;9.75;;;9.15;;
6197;SDS011;3132;42.622;23.328;2022-08-19T01:12:25;11.52;;;10.77;;
6197;SDS011;3132;42.622;23.328;2022-08-19T01:14:50;11.57;;;10.77;;
6197;SDS011;3132;42.622;23.328;2022-08-19T01:17:17;10.45;;;9.75;;
6197;SDS011;3132;42.622;23.328;2022-08-19T01:19:44;12.18;;;11.27;;
6197;SDS011;3132;42.622;23.328;2022-08-19T01:24:37;10.75;;;10.05;;
6197;SDS011;3132;42.622;23.328;2022-08-19T01:27:06;11.80;;;10.30;;
6197;SDS011;3132;42.622;23.328;2022-08-19T01:29:32;11.18;;;10.32;;
6197;SDS011;3132;42.622;23.328;2022-08-19T01:32:00;11.50;;;10.43;;
6197;SDS011;3132;42.622;23.328;2022-08-19T01:34:26;11.10;;;10.40;;
6197;SDS011;3132;42.622;23.328;2022-08-19T01:36:51;11.00;;;10.25;;
6197;SDS011;3132;42.622;23.328;2022-08-19T01:39:19;10.63;;;9.80;;
6197;SDS011;3132;42.622;23.328;2022-08-19T01:41:46;10.27;;;9.57;;
6197;SDS011;3132;42.622;23.328;2022-08-19T01:44:13;10.10;;;9.48;;
6197;SDS011;3132;42.622;23.328;2022-08-19T01:46:38;11.50;;;10.52;;
6197;SDS011;3132;42.622;23.328;2022-08-19T01:49:04;12.07;;;11.07;;
6197;SDS011;3132;42.622;23.328;2022-08-19T01:51:30;11.07;;;10.25;;
6197;SDS011;3132;42.622;23.328;2022-08-19T01:53:56;11.98;;;10.65;;
6197;SDS011;3132;42.622;23.328;2022-08-19T01:56:21;11.73;;;10.75;;
6197;SDS011;3132;42.622;23.328;2022-08-19T01:58:53;10.75;;;9.75;;
6197;SDS011;3132;42.622;23.328;2022-08-19T02:01:27;10.18;;;9.57;;
6197;SDS011;3132;42.622;23.328;2022-08-19T02:03:57;11.23;;;10.18;;
6197;SDS011;3132;42.622;23.328;2022-08-19T02:06:23;12.07;;;11.10;;
6197;SDS011;3132;42.622;23.328;2022-08-19T02:08:49;11.57;;;10.57;;
6197;SDS011;3132;42.622;23.328;2022-08-19T02:11:19;10.95;;;9.98;;
6197;SDS011;3132;42.622;23.328;2022-08-19T02:13:49;10.98;;;10.18;;
6197;SDS011;3132;42.622;23.328;2022-08-19T02:16:16;11.38;;;10.68;;
6197;SDS011;3132;42.622;23.328;2022-08-19T02:18:42;12.00;;;11.10;;
6197;SDS011;3132;42.622;23.328;2022-08-19T02:21:07;10.82;;;9.82;;
6197;SDS011;3132;42.622;23.328;2022-08-19T02:23:33;11.82;;;10.82;;
6197;SDS011;3132;42.622;23.328;2022-08-19T02:25:58;11.20;;;9.98;;
6197;SDS011;3132;42.622;23.328;2022-08-19T02:28:23;10.98;;;9.98;;
6197;SDS011;3132;42.622;23.328;2022-08-19T02:30:49;9.85;;;9.23;;
6197;SDS011;3132;42.622;23.328;2022-08-19T02:33:14;9.63;;;8.80;;
6197;SDS011;3132;42.622;23.328;2022-08-19T02:35:41;10.05;;;9.25;;
6197;SDS011;3132;42.622;23.328;2022-08-19T02:38:08;10.60;;;9.90;;
6197;SDS011;3132;42.622;23.328;2022-08-19T02:40:56;10.30;;;9.63;;
6197;SDS011;3132;42.622;23.328;2022-08-19T02:43:24;10.23;;;9.43;;
6197;SDS011;3132;42.622;23.328;2022-08-19T02:45:51;10.45;;;9.75;;
6197;SDS011;3132;42.622;23.328;2022-08-19T02:48:20;10.43;;;9.73;;
6197;SDS011;3132;42.622;23.328;2022-08-19T02:50:48;10.45;;;9.75;;
6197;SDS011;3132;42.622;23.328;2022-08-19T02:53:24;10.43;;;9.63;;
6197;SDS011;3132;42.622;23.328;2022-08-19T02:55:51;10.52;;;9.82;;
6197;SDS011;3132;42.622;23.328;2022-08-19T02:58:17;10.57;;;9.77;;
6197;SDS011;3132;42.622;23.328;2022-08-19T03:00:48;11.50;;;10.48;;
6197;SDS011;3132;42.622;23.328;2022-08-19T03:03:15;12.05;;;11.13;;
6197;SDS011;3132;42.622;23.328;2022-08-19T03:05:42;11.13;;;10.32;;
6197;SDS011;3132;42.622;23.328;2022-08-19T03:08:08;11.48;;;10.50;;
6197;SDS011;3132;42.622;23.328;2022-08-19T03:10:47;10.30;;;9.57;;
6197;SDS011;3132;42.622;23.328;2022-08-19T03:13:14;11.68;;;10.88;;
6197;SDS011;3132;42.622;23.328;2022-08-19T03:15:42;11.48;;;10.68;;
6197;SDS011;3132;42.622;23.328;2022-08-19T03:18:09;10.23;;;9.52;;
6197;SDS011;3132;42.622;23.328;2022-08-19T03:20:42;10.95;;;10.25;;
6197;SDS011;3132;42.622;23.328;2022-08-19T03:23:12;11.05;;;10.32;;
6197;SDS011;3132;42.622;23.328;2022-08-19T03:25:40;10.48;;;9.70;;
6197;SDS011;3132;42.622;23.328;2022-08-19T03:28:08;11.13;;;9.63;;
6197;SDS011;3132;42.622;23.328;2022-08-19T03:30:38;10.40;;;9.48;;
6197;SDS011;3132;42.622;23.328;2022-08-19T03:33:08;10.63;;;10.00;;
6197;SDS011;3132;42.622;23.328;2022-08-19T03:35:34;11.13;;;10.03;;
6197;SDS011;3132;42.622;23.328;2022-08-19T03:38:03;11.43;;;10.50;;
6197;SDS011;3132;42.622;23.328;2022-08-19T03:40:29;10.83;;;10.03;;
6197;SDS011;3132;42.622;23.328;2022-08-19T03:42:55;10.77;;;9.97;;
6197;SDS011;3132;42.622;23.328;2022-08-19T03:45:21;10.07;;;9.48;;
6197;SDS011;3132;42.622;23.328;2022-08-19T03:47:47;9.70;;;8.90;;
6197;SDS011;3132;42.622;23.328;2022-08-19T03:50:12;10.18;;;9.05;;
6197;SDS011;3132;42.622;23.328;2022-08-19T03:52:38;10.17;;;9.27;;
6197;SDS011;3132;42.622;23.328;2022-08-19T03:55:04;10.83;;;10.03;;
6197;SDS011;3132;42.622;23.328;2022-08-19T03:57:30;10.63;;;9.63;;
6197;SDS011;3132;42.622;23.328;2022-08-19T03:59:55;11.50;;;10.70;;
6197;SDS011;3132;42.622;23.328;2022-08-19T04:02:20;10.30;;;9.48;;
6197;SDS011;3132;42.622;23.328;2022-08-19T04:04:46;10.95;;;10.07;;
6197;SDS011;3132;42.622;23.328;2022-08-19T04:07:12;12.00;;;10.83;;
6197;SDS011;3132;42.622;23.328;2022-08-19T04:09:41;11.13;;;10.33;;
6197;SDS011;3132;42.622;23.328;2022-08-19T04:12:06;10.90;;;10.10;;
6197;SDS011;3132;42.622;23.328;2022-08-19T04:14:33;10.73;;;9.82;;
6197;SDS011;3132;42.622;23.328;2022-08-19T04:16:59;11.95;;;10.73;;
6197;SDS011;3132;42.622;23.328;2022-08-19T04:19:26;11.10;;;10.20;;
6197;SDS011;3132;42.622;23.328;2022-08-19T04:21:54;10.07;;;9.30;;
6197;SDS011;3132;42.622;23.328;2022-08-19T04:24:21;11.88;;;10.73;;
6197;SDS011;3132;42.622;23.328;2022-08-19T04:26:47;11.02;;;10.23;;
6197;SDS011;3132;42.622;23.328;2022-08-19T04:29:15;11.85;;;10.95;;
6197;SDS011;3132;42.622;23.328;2022-08-19T04:31:47;10.32;;;9.52;;
6197;SDS011;3132;42.622;23.328;2022-08-19T04:34:14;10.77;;;9.70;;
6197;SDS011;3132;42.622;23.328;2022-08-19T04:36:43;11.07;;;10.27;;
6197;SDS011;3132;42.622;23.328;2022-08-19T04:39:14;11.77;;;10.88;;
6197;SDS011;3132;42.622;23.328;2022-08-19T04:41:41;11.32;;;10.43;;
6197;SDS011;3132;42.622;23.328;2022-08-19T04:44:26;11.35;;;10.35;;
6197;SDS011;3132;42.622;23.328;2022-08-19T04:46:55;10.13;;;9.32;;
6197;SDS011;3132;42.622;23.328;2022-08-19T04:49:21;12.90;;;11.90;;
6197;SDS011;3132;42.622;23.328;2022-08-19T04:51:48;12.30;;;11.23;;
6197;SDS011;3132;42.622;23.328;2022-08-19T04:54:16;12.55;;;11.65;;
6197;SDS011;3132;42.622;23.328;2022-08-19T04:56:42;12.38;;;11.35;;
6197;SDS011;3132;42.622;23.328;2022-08-19T04:59:08;12.60;;;11.57;;
6197;SDS011;3132;42.622;23.328;2022-08-19T05:01:35;12.20;;;11.07;;
6197;SDS011;3132;42.622;23.328;2022-08-19T05:04:01;12.43;;;11.52;;
6197;SDS011;3132;42.622;23.328;2022-08-19T05:06:30;12.38;;;11.38;;
6197;SDS011;3132;42.622;23.328;2022-08-19T05:08:57;11.27;;;10.38;;
6197;SDS011;3132;42.622;23.328;2022-08-19T05:11:29;12.70;;;11.63;;
6197;SDS011;3132;42.622;23.328;2022-08-19T05:14:01;14.90;;;13.48;;
6197;SDS011;3132;42.622;23.328;2022-08-19T05:16:27;13.75;;;12.38;;
6197;SDS011;3132;42.622;23.328;2022-08-19T05:18:53;12.85;;;11.85;;
6197;SDS011;3132;42.622;23.328;2022-08-19T05:21:38;12.02;;;11.07;;
6197;SDS011;3132;42.622;23.328;2022-08-19T05:24:23;12.75;;;11.73;;
6197;SDS011;3132;42.622;23.328;2022-08-19T05:26:50;13.98;;;12.80;;
6197;SDS011;3132;42.622;23.328;2022-08-19T05:29:19;13.10;;;12.00;;
6197;SDS011;3132;42.622;23.328;2022-08-19T05:31:46;11.90;;;11.00;;
6197;SDS011;3132;42.622;23.328;2022-08-19T05:34:14;12.88;;;11.88;;
6197;SDS011;3132;42.622;23.328;2022-08-19T05:36:41;15.32;;;13.98;;
6197;SDS011;3132;42.622;23.328;2022-08-19T05:39:09;13.60;;;12.50;;
6197;SDS011;3132;42.622;23.328;2022-08-19T05:41:40;12.70;;;11.43;;
6197;SDS011;3132;42.622;23.328;2022-08-19T05:44:11;11.88;;;10.98;;
6197;SDS011;3132;42.622;23.328;2022-08-19T05:46:37;12.73;;;11.73;;
6197;SDS011;3132;42.622;23.328;2022-08-19T05:49:04;11.60;;;10.70;;
6197;SDS011;3132;42.622;23.328;2022-08-19T05:51:31;12.25;;;11.23;;
6197;SDS011;3132;42.622;23.328;2022-08-19T05:53:59;12.10;;;11.07;;
6197;SDS011;3132;42.622;23.328;2022-08-19T05:56:24;12.02;;;11.13;;
6197;SDS011;3132;42.622;23.328;2022-08-19T05:58:50;12.18;;;11.18;;
6197;SDS011;3132;42.622;23.328;2022-08-19T06:01:16;12.73;;;11.55;;
6197;SDS011;3132;42.622;23.328;2022-08-19T06:03:43;12.85;;;11.75;;
6197;SDS011;3132;42.622;23.328;2022-08-19T06:06:10;13.27;;;12.05;;
6197;SDS011;3132;42.622;23.328;2022-08-19T06:08:38;12.13;;;11.13;;
6197;SDS011;3132;42.622;23.328;2022-08-19T06:13:51;11.77;;;9.90;;
6197;SDS011;3132;42.622;23.328;2022-08-19T06:16:19;11.75;;;10.40;;
6197;SDS011;3132;42.622;23.328;2022-08-19T06:18:47;11.27;;;10.10;;
6197;SDS011;3132;42.622;23.328;2022-08-19T06:21:17;11.50;;;10.32;;
6197;SDS011;3132;42.622;23.328;2022-08-19T06:23:46;11.20;;;10.18;;
6197;SDS011;3132;42.622;23.328;2022-08-19T06:26:12;15.13;;;10.10;;
6197;SDS011;3132;42.622;23.328;2022-08-19T06:28:39;12.05;;;10.95;;
6197;SDS011;3132;42.622;23.328;2022-08-19T06:31:08;11.75;;;10.75;;
6197;SDS011;3132;42.622;23.328;2022-08-19T06:33:34;12.40;;;11.30;;
6197;SDS011;3132;42.622;23.328;2022-08-19T06:36:00;18.98;;;12.73;;
6197;SDS011;3132;42.622;23.328;2022-08-19T06:38:25;19.85;;;12.48;;
6197;SDS011;3132;42.622;23.328;2022-08-19T06:40:51;16.15;;;10.55;;
6197;SDS011;3132;42.622;23.328;2022-08-19T06:43:25;13.05;;;11.88;;
6197;SDS011;3132;42.622;23.328;2022-08-19T06:45:50;13.45;;;11.30;;
6197;SDS011;3132;42.622;23.328;2022-08-19T06:48:16;15.15;;;11.35;;
6197;SDS011;3132;42.622;23.328;2022-08-19T06:50:42;17.83;;;11.77;;
6197;SDS011;3132;42.622;23.328;2022-08-19T06:53:07;11.48;;;10.35;;
6197;SDS011;3132;42.622;23.328;2022-08-19T06:55:32;12.75;;;11.52;;
6197;SDS011;3132;42.622;23.328;2022-08-19T06:58:00;12.93;;;11.10;;
6197;SDS011;3132;42.622;23.328;2022-08-19T07:00:28;12.00;;;10.73;;
6197;SDS011;3132;42.622;23.328;2022-08-19T07:02:53;11.90;;;10.82;;
6197;SDS011;3132;42.622;23.328;2022-08-19T07:05:19;12.13;;;10.88;;
6197;SDS011;3132;42.622;23.328;2022-08-19T07:07:44;11.85;;;10.63;;
6197;SDS011;3132;42.622;23.328;2022-08-19T07:10:09;12.70;;;11.45;;
6197;SDS011;3132;42.622;23.328;2022-08-19T07:12:35;12.02;;;10.95;;
6197;SDS011;3132;42.622;23.328;2022-08-19T07:15:01;13.38;;;12.18;;
6197;SDS011;3132;42.622;23.328;2022-08-19T07:17:28;15.80;;;12.68;;
6197;SDS011;3132;42.622;23.328;2022-08-19T07:19:53;11.70;;;10.60;;
6197;SDS011;3132;42.622;23.328;2022-08-19T07:22:20;12.02;;;10.93;;
6197;SDS011;3132;42.622;23.328;2022-08-19T07:24:47;11.93;;;11.07;;
6197;SDS011;3132;42.622;23.328;2022-08-19T07:27:13;12.77;;;11.50;;
6197;SDS011;3132;42.622;23.328;2022-08-19T07:29:39;13.52;;;11.45;;
6197;SDS011;3132;42.622;23.328;2022-08-19T07:32:05;11.68;;;10.57;;
6197;SDS011;3132;42.622;23.328;2022-08-19T07:34:31;12.40;;;11.25;;
6197;SDS011;3132;42.622;23.328;2022-08-19T07:37:01;12.13;;;11.02;;
6197;SDS011;3132;42.622;23.328;2022-08-19T07:39:28;11.52;;;10.70;;
6197;SDS011;3132;42.622;23.328;2022-08-19T07:41:55;13.25;;;11.18;;
6197;SDS011;3132;42.622;23.328;2022-08-19T07:44:21;12.52;;;11.23;;
6197;SDS011;3132;42.622;23.328;2022-08-19T07:46:49;11.93;;;10.88;;
6197;SDS011;3132;42.622;23.328;2022-08-19T07:49:16;10.95;;;10.05;;
6197;SDS011;3132;42.622;23.328;2022-08-19T07:51:45;12.88;;;10.35;;
6197;SDS011;3132;42.622;23.328;2022-08-19T07:54:16;11.25;;;10.35;;
6197;SDS011;3132;42.622;23.328;2022-08-19T07:56:42;14.68;;;10.98;;
6197;SDS011;3132;42.622;23.328;2022-08-19T07:59:07;11.32;;;10.30;;
6197;SDS011;3132;42.622;23.328;2022-08-19T08:01:34;11.52;;;10.55;;
6197;SDS011;3132;42.622;23.328;2022-08-19T08:03:59;10.32;;;9.60;;
6197;SDS011;3132;42.622;23.328;2022-08-19T08:06:44;11.07;;;10.10;;
6197;SDS011;3132;42.622;23.328;2022-08-19T08:09:30;16.42;;;14.55;;
6197;SDS011;3132;42.622;23.328;2022-08-19T08:12:09;11.50;;;10.32;;
6197;SDS011;3132;42.622;23.328;2022-08-19T08:14:42;12.68;;;11.40;;
6197;SDS011;3132;42.622;23.328;2022-08-19T08:17:09;10.82;;;9.93;;
6197;SDS011;3132;42.622;23.328;2022-08-19T08:19:35;10.13;;;9.43;;
6197;SDS011;3132;42.622;23.328;2022-08-19T08:22:01;11.02;;;10.15;;
6197;SDS011;3132;42.622;23.328;2022-08-19T08:24:29;10.98;;;9.82;;
6197;SDS011;3132;42.622;23.328;2022-08-19T08:26:56;10.07;;;9.13;;
6197;SDS011;3132;42.622;23.328;2022-08-19T08:29:24;11.10;;;9.80;;
6197;SDS011;3132;42.622;23.328;2022-08-19T08:31:51;11.80;;;9.60;;
6197;SDS011;3132;42.622;23.328;2022-08-19T08:34:16;11.10;;;9.98;;
6197;SDS011;3132;42.622;23.328;2022-08-19T08:36:44;9.93;;;9.10;;
6197;SDS011;3132;42.622;23.328;2022-08-19T08:39:17;10.07;;;9.38;;
6197;SDS011;3132;42.622;23.328;2022-08-19T08:41:54;10.98;;;10.07;;
6197;SDS011;3132;42.622;23.328;2022-08-19T08:47:13;11.07;;;10.25;;
6197;SDS011;3132;42.622;23.328;2022-08-19T08:52:47;9.57;;;8.88;;
6197;SDS011;3132;42.622;23.328;2022-08-19T08:55:17;10.10;;;9.30;;
6197;SDS011;3132;42.622;23.328;2022-08-19T09:02:50;9.80;;;9.10;;
6197;SDS011;3132;42.622;23.328;2022-08-19T09:05:15;11.05;;;8.98;;
6197;SDS011;3132;42.622;23.328;2022-08-19T09:07:56;9.90;;;8.77;;
6197;SDS011;3132;42.622;23.328;2022-08-19T09:13:11;9.23;;;8.52;;
6197;SDS011;3132;42.622;23.328;2022-08-19T09:15:50;9.15;;;8.38;;
6197;SDS011;3132;42.622;23.328;2022-08-19T09:18:20;10.10;;;9.13;;
6197;SDS011;3132;42.622;23.328;2022-08-19T09:20:46;9.93;;;9.13;;
6197;SDS011;3132;42.622;23.328;2022-08-19T09:23:14;10.07;;;8.20;;
6197;SDS011;3132;42.622;23.328;2022-08-19T09:25:40;9.77;;;8.90;;
6197;SDS011;3132;42.622;23.328;2022-08-19T09:28:06;9.68;;;8.77;;
6197;SDS011;3132;42.622;23.328;2022-08-19T09:30:33;9.65;;;8.95;;
6197;SDS011;3132;42.622;23.328;2022-08-19T09:33:04;11.02;;;9.13;;
6197;SDS011;3132;42.622;23.328;2022-08-19T09:35:30;10.65;;;9.65;;
6197;SDS011;3132;42.622;23.328;2022-08-19T09:37:56;12.15;;;9.20;;
6197;SDS011;3132;42.622;23.328;2022-08-19T09:40:23;9.43;;;8.80;;
6197;SDS011;3132;42.622;23.328;2022-08-19T09:42:49;10.90;;;8.80;;
6197;SDS011;3132;42.622;23.328;2022-08-19T09:45:15;9.15;;;8.25;;
6197;SDS011;3132;42.622;23.328;2022-08-19T09:47:46;9.35;;;8.73;;
6197;SDS011;3132;42.622;23.328;2022-08-19T09:50:13;9.82;;;9.00;;
6197;SDS011;3132;42.622;23.328;2022-08-19T09:52:39;9.85;;;8.77;;
6197;SDS011;3132;42.622;23.328;2022-08-19T09:55:07;8.98;;;8.38;;
6197;SDS011;3132;42.622;23.328;2022-08-19T09:57:35;9.40;;;8.60;;
6197;SDS011;3132;42.622;23.328;2022-08-19T10:00:01;9.27;;;8.38;;
6197;SDS011;3132;42.622;23.328;2022-08-19T10:02:28;10.68;;;8.80;;
6197;SDS011;3132;42.622;23.328;2022-08-19T10:04:53;8.77;;;8.10;;
6197;SDS011;3132;42.622;23.328;2022-08-19T10:07:38;9.40;;;8.73;;
6197;SDS011;3132;42.622;23.328;2022-08-19T10:10:04;9.52;;;8.48;;
6197;SDS011;3132;42.622;23.328;2022-08-19T10:12:31;8.40;;;7.80;;
6197;SDS011;3132;42.622;23.328;2022-08-19T10:14:58;9.07;;;8.20;;
6197;SDS011;3132;42.622;23.328;2022-08-19T10:17:24;9.60;;;8.68;;
6197;SDS011;3132;42.622;23.328;2022-08-19T10:19:50;9.00;;;8.40;;
6197;SDS011;3132;42.622;23.328;2022-08-19T10:22:16;9.98;;;9.15;;
6197;SDS011;3132;42.622;23.328;2022-08-19T10:24:43;9.40;;;8.60;;
6197;SDS011;3132;42.622;23.328;2022-08-19T10:27:08;9.43;;;8.57;;
6197;SDS011;3132;42.622;23.328;2022-08-19T10:29:34;9.38;;;8.73;;
6197;SDS011;3132;42.622;23.328;2022-08-19T10:32:00;9.05;;;8.45;;
6197;SDS011;3132;42.622;23.328;2022-08-19T10:34:27;10.43;;;9.55;;
6197;SDS011;3132;42.622;23.328;2022-08-19T10:36:53;8.80;;;8.00;;
6197;SDS011;3132;42.622;23.328;2022-08-19T10:39:19;10.23;;;9.32;;
6197;SDS011;3132;42.622;23.328;2022-08-19T10:41:44;8.60;;;7.93;;
6197;SDS011;3132;42.622;23.328;2022-08-19T10:44:11;8.23;;;7.72;;
6197;SDS011;3132;42.622;23.328;2022-08-19T10:46:39;8.80;;;8.23;;
6197;SDS011;3132;42.622;23.328;2022-08-19T10:49:06;9.27;;;8.38;;
6197;SDS011;3132;42.622;23.328;2022-08-19T10:51:33;9.93;;;9.23;;
6197;SDS011;3132;42.622;23.328;2022-08-19T10:54:18;9.70;;;8.75;;
6197;SDS011;3132;42.622;23.328;2022-08-19T10:56:44;9.75;;;8.95;;
6197;SDS011;3132;42.622;23.328;2022-08-19T11:01:46;9.07;;;8.48;;
6197;SDS011;3132;42.622;23.328;2022-08-19T11:04:13;10.05;;;8.43;;
6197;SDS011;3132;42.622;23.328;2022-08-19T11:06:39;11.13;;;8.85;;
6197;SDS011;3132;42.622;23.328;2022-08-19T11:09:07;9.07;;;8.38;;
6197;SDS011;3132;42.622;23.328;2022-08-19T11:11:33;9.50;;;8.68;;
6197;SDS011;3132;42.622;23.328;2022-08-19T11:14:09;9.55;;;8.82;;
6197;SDS011;3132;42.622;23.328;2022-08-19T11:16:37;8.52;;;7.93;;
6197;SDS011;3132;42.622;23.328;2022-08-19T11:19:06;9.02;;;8.38;;
6197;SDS011;3132;42.622;23.328;2022-08-19T11:21:43;10.10;;;9.30;;
6197;SDS011;3132;42.622;23.328;2022-08-19T11:24:17;11.50;;;9.13;;
6197;SDS011;3132;42.622;23.328;2022-08-19T11:26:47;9.90;;;9.05;;
6197;SDS011;3132;42.622;23.328;2022-08-19T11:29:15;10.93;;;9.57;;
6197;SDS011;3132;42.622;23.328;2022-08-19T11:31:44;10.63;;;9.60;;
6197;SDS011;3132;42.622;23.328;2022-08-19T11:34:12;9.65;;;8.75;;
6197;SDS011;3132;42.622;23.328;2022-08-19T11:36:41;9.45;;;8.75;;
6197;SDS011;3132;42.622;23.328;2022-08-19T11:39:10;9.85;;;8.93;;
6197;SDS011;3132;42.622;23.328;2022-08-19T11:41:38;9.57;;;8.68;;
6197;SDS011;3132;42.622;23.328;2022-08-19T11:44:04;9.90;;;9.05;;
6197;SDS011;3132;42.622;23.328;2022-08-19T11:46:31;9.70;;;8.77;;
6197;SDS011;3132;42.622;23.328;2022-08-19T11:48:57;9.80;;;8.93;;
6197;SDS011;3132;42.622;23.328;2022-08-19T11:51:24;9.32;;;8.70;;
6197;SDS011;3132;42.622;23.328;2022-08-19T11:53:51;9.27;;;8.68;;
6197;SDS011;3132;42.622;23.328;2022-08-19T11:56:18;9.35;;;8.45;;
6197;SDS011;3132;42.622;23.328;2022-08-19T11:58:43;9.70;;;8.85;;
6197;SDS011;3132;42.622;23.328;2022-08-19T12:01:10;9.32;;;8.68;;
6197;SDS011;3132;42.622;23.328;2022-08-19T12:03:36;11.02;;;9.93;;
6197;SDS011;3132;42.622;23.328;2022-08-19T12:06:13;10.02;;;9.20;;
6197;SDS011;3132;42.622;23.328;2022-08-19T12:08:43;10.38;;;9.38;;
6197;SDS011;3132;42.622;23.328;2022-08-19T12:11:10;9.25;;;8.63;;
6197;SDS011;3132;42.622;23.328;2022-08-19T12:13:37;10.05;;;9.25;;
6197;SDS011;3132;42.622;23.328;2022-08-19T12:16:46;9.00;;;8.30;;
6197;SDS011;3132;42.622;23.328;2022-08-19T12:18:54;10.80;;;8.13;;
6197;SDS011;3132;42.622;23.328;2022-08-19T12:21:21;9.52;;;8.88;;
6197;SDS011;3132;42.622;23.328;2022-08-19T12:23:53;10.13;;;9.13;;
6197;SDS011;3132;42.622;23.328;2022-08-19T12:26:20;10.32;;;9.35;;
6197;SDS011;3132;42.622;23.328;2022-08-19T12:28:46;9.23;;;8.52;;
6197;SDS011;3132;42.622;23.328;2022-08-19T12:31:13;9.65;;;8.98;;
6197;SDS011;3132;42.622;23.328;2022-08-19T12:33:39;9.68;;;9.00;;
6197;SDS011;3132;42.622;23.328;2022-08-19T12:36:07;9.05;;;8.35;;
6197;SDS011;3132;42.622;23.328;2022-08-19T12:38:35;9.35;;;8.57;;
6197;SDS011;3132;42.622;23.328;2022-08-19T12:41:02;9.18;;;8.35;;
6197;SDS011;3132;42.622;23.328;2022-08-19T12:43:31;10.23;;;9.23;;
6197;SDS011;3132;42.622;23.328;2022-08-19T12:46:01;9.18;;;8.35;;
6197;SDS011;3132;42.622;23.328;2022-08-19T12:48:27;10.07;;;9.18;;
6197;SDS011;3132;42.622;23.328;2022-08-19T12:50:52;8.68;;;8.07;;
6197;SDS011;3132;42.622;23.328;2022-08-19T12:53:19;9.68;;;8.88;;
6197;SDS011;3132;42.622;23.328;2022-08-19T12:55:44;9.80;;;9.10;;
6197;SDS011;3132;42.622;23.328;2022-08-19T12:58:10;9.25;;;8.65;;
6197;SDS011;3132;42.622;23.328;2022-08-19T13:00:35;9.00;;;8.38;;
6197;SDS011;3132;42.622;23.328;2022-08-19T13:03:01;9.30;;;8.60;;
6197;SDS011;3132;42.622;23.328;2022-08-19T13:05:28;9.75;;;8.88;;
6197;SDS011;3132;42.622;23.328;2022-08-19T13:07:56;9.80;;;8.82;;
6197;SDS011;3132;42.622;23.328;2022-08-19T13:10:25;10.65;;;9.65;;
6197;SDS011;3132;42.622;23.328;2022-08-19T13:12:53;9.02;;;8.43;;
6197;SDS011;3132;42.622;23.328;2022-08-19T13:15:19;10.25;;;9.00;;
6197;SDS011;3132;42.622;23.328;2022-08-19T13:17:47;10.02;;;9.02;;
6197;SDS011;3132;42.622;23.328;2022-08-19T13:20:14;9.95;;;9.18;;
6197;SDS011;3132;42.622;23.328;2022-08-19T13:22:41;9.80;;;8.88;;
6197;SDS011;3132;42.622;23.328;2022-08-19T13:25:07;10.07;;;9.23;;
6197;SDS011;3132;42.622;23.328;2022-08-19T13:27:33;9.93;;;9.13;;
6197;SDS011;3132;42.622;23.328;2022-08-19T13:29:59;10.05;;;9.05;;
6197;SDS011;3132;42.622;23.328;2022-08-19T13:32:43;9.43;;;8.73;;
6197;SDS011;3132;42.622;23.328;2022-08-19T13:35:27;9.40;;;8.68;;
6197;SDS011;3132;42.622;23.328;2022-08-19T13:37:53;9.57;;;8.88;;
6197;SDS011;3132;42.622;23.328;2022-08-19T13:40:19;9.77;;;9.05;;
6197;SDS011;3132;42.622;23.328;2022-08-19T13:42:49;11.65;;;9.25;;
6197;SDS011;3132;42.622;23.328;2022-08-19T13:45:17;10.63;;;9.73;;
6197;SDS011;3132;42.622;23.328;2022-08-19T13:47:48;14.68;;;8.85;;
6197;SDS011;3132;42.622;23.328;2022-08-19T13:50:20;8.90;;;8.25;;
6197;SDS011;3132;42.622;23.328;2022-08-19T13:52:48;9.20;;;8.45;;
6197;SDS011;3132;42.622;23.328;2022-08-19T13:55:14;10.30;;;9.43;;
6197;SDS011;3132;42.622;23.328;2022-08-19T13:57:40;9.95;;;9.05;;
6197;SDS011;3132;42.622;23.328;2022-08-19T14:00:11;9.90;;;9.00;;
6197;SDS011;3132;42.622;23.328;2022-08-19T14:02:40;9.15;;;8.52;;
6197;SDS011;3132;42.622;23.328;2022-08-19T14:05:07;9.70;;;9.00;;
6197;SDS011;3132;42.622;23.328;2022-08-19T14:07:36;9.88;;;9.18;;
6197;SDS011;3132;42.622;23.328;2022-08-19T14:10:02;9.77;;;9.07;;
6197;SDS011;3132;42.622;23.328;2022-08-19T14:12:29;10.15;;;9.23;;
6197;SDS011;3132;42.622;23.328;2022-08-19T14:14:57;9.80;;;9.05;;
6197;SDS011;3132;42.622;23.328;2022-08-19T14:17:22;10.65;;;9.80;;
6197;SDS011;3132;42.622;23.328;2022-08-19T14:19:47;8.98;;;8.38;;
6197;SDS011;3132;42.622;23.328;2022-08-19T14:22:13;10.15;;;9.45;;
6197;SDS011;3132;42.622;23.328;2022-08-19T14:24:38;11.35;;;10.32;;
6197;SDS011;3132;42.622;23.328;2022-08-19T14:27:06;9.60;;;8.80;;
6197;SDS011;3132;42.622;23.328;2022-08-19T14:29:32;9.32;;;8.65;;
6197;SDS011;3132;42.622;23.328;2022-08-19T14:31:59;9.98;;;8.85;;
6197;SDS011;3132;42.622;23.328;2022-08-19T14:34:25;10.45;;;9.65;;
6197;SDS011;3132;42.622;23.328;2022-08-19T14:36:51;9.50;;;8.73;;
6197;SDS011;3132;42.622;23.328;2022-08-19T14:39:16;9.43;;;8.73;;
6197;SDS011;3132;42.622;23.328;2022-08-19T14:41:42;12.85;;;9.68;;
6197;SDS011;3132;42.622;23.328;2022-08-19T14:44:08;10.07;;;9.07;;
6197;SDS011;3132;42.622;23.328;2022-08-19T14:46:37;10.05;;;9.20;;
6197;SDS011;3132;42.622;23.328;2022-08-19T14:49:03;10.10;;;9.20;;
6197;SDS011;3132;42.622;23.328;2022-08-19T14:51:28;9.95;;;9.20;;
6197;SDS011;3132;42.622;23.328;2022-08-19T14:53:54;9.77;;;8.98;;
6197;SDS011;3132;42.622;23.328;2022-08-19T14:56:21;9.38;;;8.57;;
6197;SDS011;3132;42.622;23.328;2022-08-19T14:58:48;10.70;;;9.00;;
6197;SDS011;3132;42.622;23.328;2022-08-19T15:01:17;10.10;;;9.18;;
6197;SDS011;3132;42.622;23.328;2022-08-19T15:03:45;9.77;;;9.05;;
6197;SDS011;3132;42.622;23.328;2022-08-19T15:06:12;10.25;;;9.35;;
6197;SDS011;3132;42.622;23.328;2022-08-19T15:08:38;9.95;;;9.15;;
6197;SDS011;3132;42.622;23.328;2022-08-19T15:11:09;10.80;;;9.85;;